En poursuivant votre navigation sur ce site, vous acceptez l'utilisation de cookies pour vous proposer des contenus et services adaptés. Mentions légales.
  

03/12/2019 Mise en ligne de la synthèse climatologique de Novembre : CLIQUEZ ICI
02/12/2019  Mise à jour des tableaux d'analyses décadaires, mensuelles et annuelles : rubrique climatologie   

NOAA COMPLET DU MOIS

Si l'entête du tableau ne s'affiche pas correctement, => actualisez la page (F5 avec Internet Explorer, Chrome...).
Utilisez l'ascenseur sur la droite des lignes du tableau pour faire défiler verticalement les jours du mois.

TABLEAU DES DONNEES COMPLETES NOAA de NOVEMBRE 2019

DATE TEMPERATURE
sous abri
TEMPARATURE 
au sol
VENT  et  Indice de Refroidissement Eolien  PRECIPITATIONS (en mm/m2)
et Intensité
PRESSION ATMOSPHERIQUE (en hPa) HUMIDITE de l'AIR RADIATIONS SOLAIRES (en W/m2)
Mini Moy. Maxi Mini Moy. Maxi Moyen Rafale I.R.E.
Minii
Précip. jour Cumul mois Intensité Maxi Mini Moy. Maxi Mini Moy. Maxi Pic maxi du jour Total jour
01/11/19 11.8° 13° 14.2° 11.1° 12.8° 15° 7.9km/h dir SSE 45.1km/h dir SE 9.9° 5.4 5.4 4.2mm/h 1005.2 1012.2 1017.9 91% 94.5% 97% 165 8 018
02/11/19 12.8° 14.9° 18.8° 12.2° 14.6° 20.6° 14km/h dir SSE 45.1km/h dir SSE 10.3° 6 11.4 7.2mm/h 995.3 1000.3 1005.4 79% 90.1% 95% 573 14 677
03/11/19 10.2° 12.2° 13.7° 10° 11.9° 15° 11.1km/h dir SE 43.5km/h dir SSE 8.3° 10.2 21.6 17mm/h 984.7 991.3 998.5 81% 88.9% 94% 478 9 815
04/11/19 8.8° 11.8° 15.3° 6.7° 11.3° 16.7° 11.7km/h dir SSE 46.7km/h dir SSE 7.3° 3.4 25 10mm/h 995.7 997.5 999.7 80% 88.9% 95% 559 13 925
05/11/19 8.2° 10.9° 14.9° 6.1° 10.4° 17.2° 6.1km/h dir SSE 33.8km/h dir SSE 7.4° 5.4 30.4 5.8mm/h 996.8 998.6 1002 67% 87.1% 95% 596 21 361
06/11/19 7.5° 9.4° 12.2° 6.1° 9.3° 15.6° 2.6km/h dir SSE 12.9km/h dir SSE 6.6° 1.4 31.8 2.6mm/h 1002.1 1006.1 1007.7 72% 89.4% 96% 582 15 037
07/11/19 8.3° 11.2° 3.9° 7.7° 12.2° 7.1km/h dir SE 40.2km/h dir SSE 4.3° 3.4 35.2 6.4mm/h 1001.5 1003.9 1005.6 81% 88.7% 95% 230 10 034
08/11/19 2.4° 7.1° 12.6° 0.6° 6.4° 15.6° 1.8km/h dir SE 11.3km/h dir SSE 2.4° 0.2 35.4 1002.9 1004.5 1008.8 62% 86.8% 97% 504 27 732
09/11/19 3.2° 6.6° 10.9° 1.1° 13.9° 2.7km/h dir O 14.5km/h dir ESE 1.7° 0 35.4 1006.7 1010.6 1013.3 68% 89% 96% 606 21 483
10/11/19 1.1° 6.2° 10.6° -1.1° 5.5° 12.2° 4km/h dir SE 33.8km/h dir S 1.1° 0.6 36 1006.3 1010.6 1014.9 69% 87.5% 95% 585 16 715
11/11/19 0.7° 5.2° 10.2° -0.6° 4.9° 12.2° 3.7km/h dir SE 20.9km/h dir ESE -0.2° 1.2 37.2 1mm/h 1008.7 1012.1 1015.4 73% 90.3% 97% 475 17 330
12/11/19 2.2° 6.1° 11.3° 5.1° 13.9° 2.7km/h dir SE 19.3km/h dir SSE 1.7° 3.2 40.4 17.8mm/h 1004.5 1008.8 1012.7 67% 87.6% 96% 582 22 660
13/11/19 -0.4° 3.8° 8.8° -2.2° 2.9° 10.6° 1.9km/h dir SE 12.9km/h dir ESE -0.4° 0.2 40.6 1004 1006.5 1008.1 76% 90.6% 97% 624 18 338
14/11/19 1.8° 4.1° 6.9° 0.6° 3.6° 6.1° 6.8km/h dir SE 53.1km/h dir SSE -0.6° 39.8 80.4 11.8mm/h 995.7 999.5 1004.1 67% 91.2% 96% 63 2 108
15/11/19 0.7° 3.4° 8.9° 10° 3.4km/h dir SSE 17.7km/h dir SE -1.6° 12.2 92.6 6.8mm/h 995.7 1000.4 1004.4 75% 92.4% 97% 450 23 582
16/11/19 1.4° 4.7° 10° -0.6° 4.1° 11.7° 5.5km/h dir SSE 30.6km/h dir SSE 0.4° 0 92.6 1004.4 1008.3 1010.1 70% 87.9% 96% 448 24 031
17/11/19 -1° 1.7° 3.9° -2.8° 1.2° 4.4° 2.3km/h dir NE 12.9km/h dir ENE -3.1° 0.8 93.4 1006.5 1007.8 1009.8 93% 95.2% 96% 151 7 563
18/11/19 1.1° 4.4° 8.4° -0.6° 11.7° 1.6km/h dir SE 9.7km/h dir ONO 1.1° 1.4 94.8 0mm/h 1009.5 1013.6 1017.1 76% 91.7% 97% 563 17 098
19/11/19 0.3° 4.2° 7.6° -2.2° 3.4° 8.3° 5km/h dir ONO 29km/h dir ONO 0.3° 0 94.8 1015.8 1016.7 1017.6 85% 91.2% 96% 323 9 398
20/11/19 -1.1° 1.1° 5.1° -2.2° 7.2° 1.4km/h dir ONO 11.3km/h dir NO -1.4° 0.2 95 1010.4 1013.4 1016.8 93% 95.4% 97% 318 12 877
21/11/19 -0.8° 4.4° 11.1° -1.7° 12.2° 2.7km/h dir SE 24.1km/h dir ESE -2.3° 5.6 100.6 5mm/h 1006.8 1008.4 1010.4 74% 92.6% 97% 496 17 318
22/11/19 6.9° 9.7° 15.6° 8.7° 16.7° 5.3km/h dir SE 30.6km/h dir ESE 5.1° 0.4 101 993.5 1001.8 1007.6 56% 82.1% 94% 529 22 385
23/11/19 4.9° 8.1° 10.3° 2.8° 7.5° 10.6° 1.9km/h dir ENE 20.9km/h dir ENE 4.8° 5.2 106.2 8mm/h 990.3 994 1000.5 85% 91.7% 97% 221 6 885
24/11/19 7.6° 8.4° 9.2° 6.7° 8.9° 1.4km/h dir ONO 12.9km/h dir ONO 7.4° 0 106.2 1000.6 1006.6 1010 94% 96.3% 97% 46 1 960
25/11/19 6.9° 8.3° 11.8° 5.6° 7.9° 12.8° 1.9km/h dir ESE 14.5km/h dir ESE 6.4° 0 106.2 1008.9 1010.1 1011.7 84% 94.7% 97% 313 9 355
26/11/19 7.2° 10.1° 14.2° 9.3° 16.1° 5.3km/h dir SE 41.8km/h dir SE 6.8° 0 106.2 999.6 1007.1 1011.5 74% 87.2% 95% 475 13 686
27/11/19 10.7° 12.1° 13.8° 9.4° 11.4° 14.4° 11.4km/h dir SSE 48.3km/h dir SSE 9.1° 5.4 111.6 8mm/h 998.2 1001.1 1003.4 71% 82.8% 94% 439 8 816
28/11/19 9.7° 10.8° 12.7° 8.9° 10.2° 12.8° 8.7km/h dir SSE 33.8km/h dir SSE 7.8° 2.8 114.4 4.6mm/h 1002.6 1005.5 1009 71% 83% 92% 267 7 935
29/11/19 7.8° 8.8° 9.8° 6.7° 8.3° 10.6° 3.4km/h dir SSE 25.7km/h dir S 7.1° 17 131.4 23.6mm/h 1008.1 1014.2 1020.6 86% 93.7% 96% 264 5 201
30/11/19 5.6° 6.7° 7.9° 3.3° 6.4° 7.8° 1.3km/h dir ESE 11.3km/h dir NE 4.8° 0.2 131.6 1014.2 1018.4 1021.5 93% 95.6% 97% 107 5 437

RETOUR ACCUEIL


Date de création : 01/12/2019 : 22:41
Catégorie : ANNEE 2019 - MOIS PASSES - NOVEMBRE 2019
Page lue 20 fois


Réactions à cet article


Personne n'a encore laissé de commentaire.
Soyez donc le premier !